createdAt,value
2023-04-10T00:01:45.179Z,82.70
2023-04-10T00:04:47.367Z,82.70
2023-04-10T00:07:49.179Z,82.90
2023-04-10T00:10:51.214Z,83.00
2023-04-10T00:13:53.925Z,83.10
2023-04-10T00:16:55.909Z,83.20
2023-04-10T00:19:59.391Z,83.30
2023-04-10T00:23:01.298Z,83.30
2023-04-10T00:26:04.598Z,83.40
2023-04-10T00:29:06.630Z,83.40
2023-04-10T00:32:08.661Z,83.50
2023-04-10T00:35:10.978Z,83.70
2023-04-10T00:38:13.376Z,83.80
2023-04-10T00:41:16.051Z,83.90
2023-04-10T00:44:17.880Z,84.10
2023-04-10T00:47:19.799Z,84.30
2023-04-10T00:50:22.400Z,84.30
2023-04-10T00:53:24.244Z,84.40
2023-04-10T00:56:26.177Z,84.40
2023-04-10T00:59:28.156Z,84.50
2023-04-10T01:02:30.294Z,84.70
2023-04-10T01:05:50.406Z,84.80
2023-04-10T01:09:11.235Z,85.00
2023-04-10T01:12:22.099Z,85.00
2023-04-10T01:15:27.017Z,85.10
2023-04-10T01:18:48.226Z,85.30
2023-04-10T01:21:51.600Z,85.60
2023-04-10T01:25:03.099Z,85.40
2023-04-10T01:28:21.198Z,85.50
2023-04-10T01:31:58.126Z,85.70
2023-04-10T01:35:06.651Z,85.60
2023-04-10T01:38:10.740Z,85.70
2023-04-10T01:41:13.694Z,85.60
2023-04-10T01:44:18.113Z,85.60
2023-04-10T01:47:20.730Z,85.90
2023-04-10T01:50:25.990Z,86.10
2023-04-10T01:53:29.250Z,86.10
2023-04-10T01:56:32.790Z,86.40
2023-04-10T01:59:34.677Z,86.40
2023-04-10T02:02:37.870Z,86.40
2023-04-10T02:05:55.249Z,86.40
2023-04-10T02:09:18.188Z,86.80
2023-04-10T02:12:28.966Z,87.00
2023-04-10T02:15:32.675Z,87.90
2023-04-10T02:18:36.164Z,87.10
2023-04-10T02:21:39.973Z,87.20
2023-04-10T02:24:42.557Z,87.30
2023-04-10T02:27:45.031Z,87.40
2023-04-10T02:30:46.861Z,87.40
2023-04-10T02:33:49.030Z,87.60
2023-04-10T02:36:50.979Z,87.60
2023-04-10T02:39:54.701Z,87.70
2023-04-10T02:42:56.861Z,87.80
2023-04-10T02:46:00.041Z,87.80
2023-04-10T02:49:01.984Z,87.90
2023-04-10T02:52:03.785Z,87.90
2023-04-10T02:55:06.526Z,87.90
2023-04-10T02:58:08.297Z,88.00
2023-04-10T03:01:10.175Z,88.20
2023-04-10T03:04:12.213Z,88.00
2023-04-10T03:07:14.152Z,88.10
2023-04-10T03:10:16.044Z,88.20
2023-04-10T03:13:17.913Z,88.30
2023-04-10T03:16:19.817Z,88.30
2023-04-10T03:19:21.604Z,88.40
2023-04-10T03:22:23.499Z,88.50
2023-04-10T03:25:25.809Z,88.60
2023-04-10T03:28:27.938Z,88.50
2023-04-10T03:31:29.951Z,88.60
2023-04-10T03:34:31.813Z,88.80
2023-04-10T03:37:33.752Z,89.00
2023-04-10T03:40:35.910Z,89.00
2023-04-10T03:43:37.802Z,89.30
2023-04-10T03:46:39.710Z,89.40
2023-04-10T03:49:41.926Z,89.50
2023-04-10T03:52:43.849Z,89.60
2023-04-10T03:55:45.693Z,89.80
2023-04-10T03:58:47.489Z,89.90
2023-04-10T04:01:49.502Z,90.00
2023-04-10T04:04:52.198Z,90.00
2023-04-10T04:07:54.100Z,90.00
2023-04-10T04:10:55.895Z,90.10
2023-04-10T04:13:58.415Z,90.20
2023-04-10T04:17:00.228Z,90.20
2023-04-10T04:20:02.173Z,90.20
2023-04-10T04:23:04.420Z,90.30
2023-04-10T04:26:07.291Z,90.40
2023-04-10T04:29:09.235Z,90.40
2023-04-10T04:32:11.377Z,90.40
2023-04-10T04:35:13.405Z,90.50
2023-04-10T04:38:16.927Z,90.50
2023-04-10T04:41:20.555Z,90.60
2023-04-10T04:44:22.636Z,90.70
2023-04-10T04:47:24.472Z,90.80
2023-04-10T04:50:26.530Z,90.80
2023-04-10T04:53:28.399Z,90.90
2023-04-10T04:56:30.275Z,91.00
2023-04-10T04:59:32.689Z,91.10
2023-04-10T05:02:34.673Z,91.30
2023-04-10T05:05:36.738Z,91.40
2023-04-10T05:08:38.680Z,91.50
2023-04-10T05:11:40.421Z,91.50
2023-04-10T05:14:42.378Z,91.50
2023-04-10T05:17:44.347Z,91.60
2023-04-10T05:20:50.190Z,91.70
2023-04-10T05:23:52.159Z,92.00
2023-04-10T05:26:54.220Z,92.00
2023-04-10T05:29:56.161Z,92.10
2023-04-10T05:32:58.156Z,92.10
2023-04-10T05:36:00.119Z,92.50
2023-04-10T05:39:01.960Z,92.30
2023-04-10T05:42:04.023Z,92.70
2023-04-10T05:45:06.790Z,92.50
2023-04-10T05:48:08.638Z,92.60
2023-04-10T05:51:10.579Z,92.80
2023-04-10T05:54:13.029Z,92.90
2023-04-10T05:57:16.021Z,93.20
2023-04-10T06:00:18.265Z,93.50
2023-04-10T06:03:20.496Z,93.80
2023-04-10T06:06:24.315Z,94.20
2023-04-10T06:09:26.946Z,94.40
2023-04-10T06:12:28.714Z,94.60
2023-04-10T06:15:31.136Z,94.80
2023-04-10T06:18:32.927Z,94.80
2023-04-10T06:21:35.049Z,94.80
2023-04-10T06:24:37.044Z,94.90
2023-04-10T06:27:39.115Z,94.90
2023-04-10T06:30:41.366Z,95.20
2023-04-10T06:33:43.154Z,95.20
2023-04-10T06:36:45.001Z,95.10
2023-04-10T06:39:46.771Z,94.90
2023-04-10T06:42:48.516Z,94.60
2023-04-10T06:45:50.854Z,94.40
2023-04-10T06:48:52.818Z,94.20
2023-04-10T06:51:54.872Z,94.20
2023-04-10T06:54:56.821Z,94.20
2023-04-10T06:57:58.961Z,94.30
2023-04-10T07:01:04.769Z,94.30
2023-04-10T07:04:07.074Z,94.30
2023-04-10T07:07:12.879Z,94.20
2023-04-10T07:10:14.854Z,94.40
2023-04-10T07:13:17.247Z,94.40
2023-04-10T07:16:19.236Z,94.40
2023-04-10T07:19:21.425Z,94.50
2023-04-10T07:22:23.995Z,94.40
2023-04-10T07:25:28.471Z,94.40
2023-04-10T07:28:30.817Z,94.60
2023-04-10T07:31:33.246Z,94.70
2023-04-10T07:34:35.298Z,94.80
2023-04-10T07:37:37.255Z,95.00
2023-04-10T07:40:39.712Z,94.90
2023-04-10T07:43:42.312Z,94.40
2023-04-10T07:46:44.387Z,94.30
2023-04-10T07:49:46.398Z,94.50
2023-04-10T07:52:49.470Z,94.80
2023-04-10T07:55:51.318Z,95.10
2023-04-10T07:58:53.439Z,95.40
2023-04-10T08:01:57.258Z,95.60
2023-04-10T08:04:59.355Z,95.80
2023-04-10T08:08:01.385Z,96.00
2023-04-10T08:11:04.651Z,96.30
2023-04-10T08:14:07.488Z,96.30
2023-04-10T08:17:14.570Z,96.60
2023-04-10T08:20:16.515Z,96.50
2023-04-10T08:23:20.821Z,96.10
2023-04-10T08:26:23.400Z,95.10
2023-04-10T08:29:25.649Z,94.10
2023-04-10T08:32:29.206Z,93.70
2023-04-10T08:35:31.175Z,93.70
2023-04-10T08:38:33.246Z,93.90
2023-04-10T08:41:35.206Z,94.70
2023-04-10T08:44:38.051Z,94.10
2023-04-10T08:47:44.169Z,94.00
2023-04-10T08:50:46.971Z,93.40
2023-04-10T08:53:54.260Z,93.60
2023-04-10T08:56:58.691Z,92.60
2023-04-10T09:03:23.436Z,93.00
2023-04-10T09:06:25.854Z,93.00
2023-04-10T09:09:32.599Z,92.70
2023-04-10T09:12:48.360Z,92.50
2023-04-10T09:16:00.579Z,90.40
2023-04-10T09:19:05.000Z,90.10
2023-04-10T09:22:07.775Z,91.70
2023-04-10T09:25:30.494Z,91.30
2023-04-10T09:28:32.819Z,87.20
2023-04-10T09:31:38.796Z,91.00
2023-04-10T09:34:54.932Z,90.60
2023-04-10T09:37:56.850Z,86.40
2023-04-10T09:41:08.576Z,90.10
2023-04-10T09:44:12.436Z,85.30
2023-04-10T09:47:14.190Z,87.10
2023-04-10T09:50:16.652Z,87.00
2023-04-10T09:53:21.298Z,87.40
2023-04-10T09:56:25.517Z,85.30
2023-04-10T09:59:27.499Z,85.20
2023-04-10T10:02:32.225Z,83.70
2023-04-10T10:05:37.250Z,82.70
2023-04-10T10:08:39.798Z,81.50
2023-04-10T10:11:41.631Z,83.30
2023-04-10T10:15:14.401Z,84.30
2023-04-10T10:18:23.308Z,78.60
2023-04-10T10:21:28.116Z,79.00
2023-04-10T10:24:31.817Z,80.60
2023-04-10T10:27:37.730Z,81.40
2023-04-10T10:30:40.387Z,80.00
2023-04-10T10:33:43.665Z,81.10
2023-04-10T10:36:45.693Z,80.00
2023-04-10T10:40:14.597Z,80.60
2023-04-10T10:43:41.183Z,79.00
2023-04-10T10:46:51.078Z,78.60
2023-04-10T10:49:58.823Z,82.00
2023-04-10T10:53:01.940Z,78.80
2023-04-10T10:56:18.665Z,80.60
2023-04-10T10:59:43.328Z,76.90
2023-04-10T11:02:46.010Z,76.90
2023-04-10T11:06:19.315Z,79.90
2023-04-10T11:09:47.589Z,75.50
2023-04-10T11:13:18.927Z,74.50
2023-04-10T11:16:21.421Z,73.50
2023-04-10T11:19:26.202Z,77.90
2023-04-10T11:22:28.873Z,78.20
2023-04-10T11:26:03.044Z,78.40
2023-04-10T11:29:04.992Z,74.60
2023-04-10T11:32:06.798Z,77.80
2023-04-10T11:35:09.409Z,77.90
2023-04-10T11:38:16.116Z,77.50
2023-04-10T11:41:18.012Z,76.50
2023-04-10T11:44:22.528Z,76.30
2023-04-10T11:47:24.372Z,75.30
2023-04-10T11:50:29.872Z,74.80
2023-04-10T11:53:31.812Z,72.70
2023-04-10T11:56:33.717Z,73.70
2023-04-10T11:59:36.186Z,73.10
2023-04-10T12:02:52.796Z,72.30
2023-04-10T12:05:55.028Z,70.10
2023-04-10T12:08:57.214Z,72.20
2023-04-10T12:12:03.382Z,72.30
2023-04-10T12:15:26.134Z,72.60
2023-04-10T12:18:29.810Z,69.30
2023-04-10T12:21:31.927Z,71.40
2023-04-10T12:24:48.037Z,71.20
2023-04-10T12:27:51.717Z,69.40
2023-04-10T12:30:53.673Z,72.10
2023-04-10T12:33:57.903Z,71.50
2023-04-10T12:36:59.889Z,71.10
2023-04-10T12:40:07.611Z,70.40
2023-04-10T12:43:09.410Z,69.00
2023-04-10T12:46:22.485Z,71.00
2023-04-10T12:49:24.305Z,70.90
2023-04-10T12:52:26.158Z,70.00
2023-04-10T12:55:29.182Z,69.30
2023-04-10T12:58:31.904Z,67.60
2023-04-10T13:01:33.958Z,66.60
2023-04-10T13:04:36.024Z,66.60
2023-04-10T13:07:38.732Z,65.40
2023-04-10T13:10:42.254Z,65.40
2023-04-10T13:13:44.099Z,65.80
2023-04-10T13:16:46.009Z,66.50
2023-04-10T13:19:48.381Z,65.20
2023-04-10T13:22:50.241Z,64.90
2023-04-10T13:25:53.169Z,64.60
2023-04-10T13:28:55.002Z,64.60
2023-04-10T13:31:57.346Z,64.90
2023-04-10T13:34:59.280Z,65.20
2023-04-10T13:38:01.482Z,64.90
2023-04-10T13:41:03.366Z,64.90
2023-04-10T13:44:05.283Z,64.70
2023-04-10T13:47:08.302Z,64.00
2023-04-10T13:50:10.712Z,64.70
2023-04-10T13:53:12.662Z,64.10
2023-04-10T13:56:14.510Z,64.60
2023-04-10T13:59:16.577Z,64.40
2023-04-10T14:02:18.451Z,64.90
2023-04-10T14:05:20.320Z,64.10
2023-04-10T14:08:22.276Z,62.60
2023-04-10T14:11:24.096Z,62.00
2023-04-10T14:14:25.845Z,62.00
2023-04-10T14:17:28.269Z,61.20
2023-04-10T14:20:30.162Z,60.10
2023-04-10T14:23:32.128Z,60.20
2023-04-10T14:26:33.956Z,60.50
2023-04-10T14:29:39.097Z,60.70
2023-04-10T14:32:46.862Z,60.10
2023-04-10T14:35:48.889Z,60.60
2023-04-10T14:38:50.772Z,60.20
2023-04-10T14:41:52.858Z,60.30
2023-04-10T14:44:54.654Z,59.90
2023-04-10T14:47:56.853Z,59.30
2023-04-10T14:50:59.287Z,59.40
2023-04-10T14:54:01.117Z,59.10
2023-04-10T14:57:04.352Z,59.00
2023-04-10T15:00:06.858Z,58.90
2023-04-10T15:03:11.533Z,59.00
2023-04-10T15:06:13.388Z,59.40
2023-04-10T15:09:15.234Z,58.90
2023-04-10T15:12:17.284Z,57.90
2023-04-10T15:15:19.177Z,57.60
2023-04-10T15:18:21.369Z,57.80
2023-04-10T15:21:23.300Z,57.50
2023-04-10T15:24:25.294Z,57.30
2023-04-10T15:27:27.227Z,57.10
2023-04-10T15:30:29.157Z,56.50
2023-04-10T15:33:30.969Z,56.60
2023-04-10T15:36:32.880Z,56.50
2023-04-10T15:39:37.033Z,56.20
2023-04-10T15:42:38.906Z,56.20
2023-04-10T15:45:40.757Z,56.10
2023-04-10T15:48:42.563Z,56.10
2023-04-10T15:51:44.492Z,56.00
2023-04-10T15:54:46.420Z,56.30
2023-04-10T15:57:48.274Z,56.20
2023-04-10T16:00:50.147Z,56.20
2023-04-10T16:03:52.335Z,56.40
2023-04-10T16:06:56.518Z,56.80
2023-04-10T16:09:58.410Z,56.00
2023-04-10T16:13:04.313Z,56.00
2023-04-10T16:16:08.961Z,56.10
2023-04-10T16:19:10.965Z,56.10
2023-04-10T16:22:12.952Z,55.80
2023-04-10T16:25:19.615Z,56.10
2023-04-10T16:28:23.916Z,56.40
2023-04-10T16:31:26.004Z,56.30
2023-04-10T16:34:28.385Z,56.00
2023-04-10T16:37:30.286Z,55.90
2023-04-10T16:40:34.891Z,55.60
2023-04-10T16:43:36.744Z,55.60
2023-04-10T16:46:38.686Z,55.50
2023-04-10T16:49:45.542Z,56.00
2023-04-10T16:52:47.483Z,55.60
2023-04-10T16:55:57.887Z,55.80
2023-04-10T16:58:59.776Z,54.90
2023-04-10T17:02:01.760Z,55.90
2023-04-10T17:05:03.674Z,55.90
2023-04-10T17:08:05.700Z,55.60
2023-04-10T17:11:07.633Z,55.60
2023-04-10T17:14:10.544Z,55.50
2023-04-10T17:17:12.409Z,55.60
2023-04-10T17:20:14.270Z,55.60
2023-04-10T17:23:16.352Z,55.80
2023-04-10T17:26:18.648Z,55.90
2023-04-10T17:29:20.528Z,55.70
2023-04-10T17:32:22.534Z,55.60
2023-04-10T17:35:25.546Z,55.60
2023-04-10T17:38:27.449Z,55.40
2023-04-10T17:41:29.269Z,55.20
2023-04-10T17:44:31.744Z,55.20
2023-04-10T17:47:33.761Z,55.10
2023-04-10T17:50:35.865Z,55.20
2023-04-10T17:53:37.856Z,55.30
2023-04-10T17:56:39.858Z,55.30
2023-04-10T17:59:41.665Z,55.60
2023-04-10T18:02:43.584Z,55.50
2023-04-10T18:05:45.738Z,55.20
2023-04-10T18:08:47.676Z,55.20
2023-04-10T18:11:50.810Z,55.10
2023-04-10T18:14:52.599Z,55.00
2023-04-10T18:17:55.046Z,55.10
2023-04-10T18:20:56.941Z,54.80
2023-04-10T18:23:58.830Z,55.10
2023-04-10T18:27:00.838Z,55.10
2023-04-10T18:30:03.465Z,55.10
2023-04-10T18:33:07.850Z,55.00
2023-04-10T18:36:14.047Z,55.00
2023-04-10T18:39:16.493Z,55.10
2023-04-10T18:42:18.338Z,55.10
2023-04-10T18:45:21.492Z,55.10
2023-04-10T18:48:23.424Z,55.10
2023-04-10T18:51:26.631Z,55.20
2023-04-10T18:54:29.907Z,55.40
2023-04-10T18:57:31.738Z,55.20
2023-04-10T19:00:34.226Z,55.50
2023-04-10T19:03:36.382Z,55.40
2023-04-10T19:06:40.918Z,55.50
2023-04-10T19:09:42.732Z,55.50
2023-04-10T19:12:45.311Z,55.60
2023-04-10T19:15:47.938Z,55.50
2023-04-10T19:18:49.982Z,55.50
2023-04-10T19:21:52.073Z,55.60
2023-04-10T19:24:53.986Z,55.60
2023-04-10T19:27:55.899Z,55.80
2023-04-10T19:30:57.762Z,55.90
2023-04-10T19:34:02.519Z,56.00
2023-04-10T19:37:04.448Z,55.90
2023-04-10T19:40:06.927Z,56.10
2023-04-10T19:43:08.846Z,56.20
2023-04-10T19:46:21.075Z,56.10
2023-04-10T19:49:23.195Z,55.80
2023-04-10T19:52:26.101Z,56.60
2023-04-10T19:55:28.038Z,56.60
2023-04-10T19:58:39.904Z,57.00
2023-04-10T20:01:43.341Z,57.10
2023-04-10T20:04:47.977Z,57.30
2023-04-10T20:07:50.609Z,57.50
2023-04-10T20:10:52.390Z,57.70
2023-04-10T20:13:54.328Z,57.80
2023-04-10T20:16:56.376Z,57.80
2023-04-10T20:19:58.247Z,58.10
2023-04-10T20:23:00.127Z,58.00
2023-04-10T20:26:02.223Z,58.10
2023-04-10T20:29:04.150Z,58.10
2023-04-10T20:32:08.274Z,58.20
2023-04-10T20:35:10.404Z,58.30
2023-04-10T20:38:12.246Z,58.40
2023-04-10T20:41:14.139Z,58.70
2023-04-10T20:44:15.926Z,58.80
2023-04-10T20:47:17.781Z,58.80
2023-04-10T20:50:19.825Z,59.00
2023-04-10T20:53:21.612Z,58.90
2023-04-10T20:56:32.839Z,59.10
2023-04-10T20:59:38.454Z,59.00
2023-04-10T21:02:41.187Z,59.10
2023-04-10T21:05:43.098Z,59.20
2023-04-10T21:08:44.920Z,59.50
2023-04-10T21:11:47.446Z,59.40
2023-04-10T21:14:49.382Z,59.30
2023-04-10T21:17:51.221Z,59.30
2023-04-10T21:20:52.989Z,59.50
2023-04-10T21:23:55.584Z,59.40
2023-04-10T21:26:57.440Z,59.30
2023-04-10T21:29:59.296Z,59.30
2023-04-10T21:33:01.164Z,59.40
2023-04-10T21:36:03.228Z,59.60
2023-04-10T21:39:09.280Z,59.80
2023-04-10T21:42:11.374Z,60.50
2023-04-10T21:45:15.613Z,59.80
2023-04-10T21:48:19.428Z,59.80
2023-04-10T21:51:21.883Z,59.90
2023-04-10T21:54:23.670Z,60.40
2023-04-10T21:57:25.574Z,59.90
2023-04-10T22:00:28.753Z,59.70
2023-04-10T22:03:30.758Z,60.00
2023-04-10T22:06:33.069Z,60.10
2023-04-10T22:09:34.869Z,59.90
2023-04-10T22:12:36.811Z,60.00
2023-04-10T22:15:38.920Z,59.80
2023-04-10T22:18:40.773Z,59.90
2023-04-10T22:21:45.642Z,59.80
2023-04-10T22:24:47.548Z,59.60
2023-04-10T22:27:49.623Z,60.00
2023-04-10T22:30:51.695Z,60.20
2023-04-10T22:33:53.606Z,59.90
2023-04-10T22:36:55.946Z,60.20
2023-04-10T22:39:57.770Z,60.00
2023-04-10T22:42:59.590Z,60.10
2023-04-10T22:46:01.500Z,60.40
2023-04-10T22:49:03.442Z,60.20
2023-04-10T22:52:05.705Z,60.40
2023-04-10T22:55:08.324Z,60.10
2023-04-10T22:58:11.126Z,60.20
2023-04-10T23:01:13.468Z,60.40
2023-04-10T23:04:15.896Z,60.40
2023-04-10T23:07:17.738Z,60.50
2023-04-10T23:10:20.298Z,60.50
2023-04-10T23:13:22.758Z,60.70
2023-04-10T23:16:24.907Z,60.80
2023-04-10T23:19:27.372Z,61.00
2023-04-10T23:22:29.892Z,61.00
2023-04-10T23:25:32.497Z,60.90
2023-04-10T23:28:34.472Z,61.20
2023-04-10T23:31:36.421Z,61.40
2023-04-10T23:34:38.473Z,61.40
2023-04-10T23:37:40.240Z,61.40
2023-04-10T23:40:42.121Z,61.40
2023-04-10T23:43:44.869Z,61.40
2023-04-10T23:46:46.786Z,62.20
2023-04-10T23:49:48.662Z,61.50
2023-04-10T23:52:54.476Z,61.40
2023-04-10T23:55:56.417Z,61.30
2023-04-10T23:58:58.465Z,61.60
